sensor_id;sensor_type;location;lat;lon;timestamp;pressure;altitude;pressure_sealevel;temperature;humidity
56038;BME280;41907;47.848;9.000;2024-02-21T00:02:24;96807.94;;;2.17;100.00
56038;BME280;41907;47.848;9.000;2024-02-21T00:04:50;96807.94;;;2.17;100.00
56038;BME280;41907;47.848;9.000;2024-02-21T00:07:15;96807.84;;;2.23;100.00
56038;BME280;41907;47.848;9.000;2024-02-21T00:09:40;96807.13;;;2.28;100.00
56038;BME280;41907;47.848;9.000;2024-02-21T00:12:06;96804.03;;;2.19;100.00
56038;BME280;41907;47.848;9.000;2024-02-21T00:14:31;96798.34;;;2.22;100.00
56038;BME280;41907;47.848;9.000;2024-02-21T00:16:57;96797.19;;;2.07;100.00
56038;BME280;41907;47.848;9.000;2024-02-21T00:19:22;96804.00;;;1.84;100.00
56038;BME280;41907;47.848;9.000;2024-02-21T00:21:47;96799.28;;;1.75;100.00
56038;BME280;41907;47.848;9.000;2024-02-21T00:24:13;96794.38;;;1.67;100.00
56038;BME280;41907;47.848;9.000;2024-02-21T00:26:38;96789.31;;;1.65;100.00
56038;BME280;41907;47.848;9.000;2024-02-21T00:29:03;96785.66;;;1.66;100.00
56038;BME280;41907;47.848;9.000;2024-02-21T00:31:29;96783.41;;;1.70;100.00
56038;BME280;41907;47.848;9.000;2024-02-21T00:33:54;96775.63;;;1.75;100.00
56038;BME280;41907;47.848;9.000;2024-02-21T00:36:19;96771.75;;;1.77;100.00
56038;BME280;41907;47.848;9.000;2024-02-21T00:38:44;96768.66;;;1.80;100.00
56038;BME280;41907;47.848;9.000;2024-02-21T00:41:10;96768.56;;;1.99;100.00
56038;BME280;41907;47.848;9.000;2024-02-21T00:43:35;96764.78;;;1.95;100.00
56038;BME280;41907;47.848;9.000;2024-02-21T00:46:00;96766.03;;;1.92;100.00
56038;BME280;41907;47.848;9.000;2024-02-21T00:48:26;96760.78;;;1.92;100.00
56038;BME280;41907;47.848;9.000;2024-02-21T00:50:51;96762.16;;;1.95;100.00
56038;BME280;41907;47.848;9.000;2024-02-21T00:53:17;96764.56;;;1.96;100.00
56038;BME280;41907;47.848;9.000;2024-02-21T00:55:42;96765.25;;;2.03;100.00
56038;BME280;41907;47.848;9.000;2024-02-21T00:58:08;96749.69;;;2.02;100.00
56038;BME280;41907;47.848;9.000;2024-02-21T01:00:34;96751.06;;;2.04;100.00
56038;BME280;41907;47.848;9.000;2024-02-21T01:02:59;96755.41;;;1.99;100.00
56038;BME280;41907;47.848;9.000;2024-02-21T01:05:25;96761.34;;;1.94;100.00
56038;BME280;41907;47.848;9.000;2024-02-21T01:07:52;96759.31;;;1.96;100.00
56038;BME280;41907;47.848;9.000;2024-02-21T01:10:17;96755.75;;;2.02;100.00
56038;BME280;41907;47.848;9.000;2024-02-21T01:12:43;96760.56;;;1.94;100.00
56038;BME280;41907;47.848;9.000;2024-02-21T01:15:08;96749.00;;;1.95;100.00
56038;BME280;41907;47.848;9.000;2024-02-21T01:17:34;96759.06;;;1.86;100.00
56038;BME280;41907;47.848;9.000;2024-02-21T01:19:59;96751.50;;;1.90;100.00
56038;BME280;41907;47.848;9.000;2024-02-21T01:22:24;96752.56;;;2.12;100.00
56038;BME280;41907;47.848;9.000;2024-02-21T01:24:50;96738.25;;;2.19;100.00
56038;BME280;41907;47.848;9.000;2024-02-21T01:27:15;96747.31;;;2.35;100.00
56038;BME280;41907;47.848;9.000;2024-02-21T01:29:41;96748.19;;;2.41;100.00
56038;BME280;41907;47.848;9.000;2024-02-21T01:32:07;96748.41;;;2.39;100.00
56038;BME280;41907;47.848;9.000;2024-02-21T01:34:32;96737.75;;;2.57;100.00
56038;BME280;41907;47.848;9.000;2024-02-21T01:36:57;96742.13;;;2.52;100.00
56038;BME280;41907;47.848;9.000;2024-02-21T01:39:24;96744.28;;;2.55;100.00
56038;BME280;41907;47.848;9.000;2024-02-21T01:41:49;96735.94;;;2.46;100.00
56038;BME280;41907;47.848;9.000;2024-02-21T01:44:15;96727.22;;;2.57;100.00
56038;BME280;41907;47.848;9.000;2024-02-21T01:46:40;96731.66;;;2.69;100.00
56038;BME280;41907;47.848;9.000;2024-02-21T01:49:06;96719.22;;;2.64;100.00
56038;BME280;41907;47.848;9.000;2024-02-21T01:51:31;96715.84;;;2.69;100.00
56038;BME280;41907;47.848;9.000;2024-02-21T01:53:57;96700.84;;;2.69;100.00
56038;BME280;41907;47.848;9.000;2024-02-21T01:56:23;96704.34;;;2.46;100.00
56038;BME280;41907;47.848;9.000;2024-02-21T01:58:49;96700.59;;;2.42;100.00
56038;BME280;41907;47.848;9.000;2024-02-21T02:01:16;96700.78;;;2.52;100.00
56038;BME280;41907;47.848;9.000;2024-02-21T02:03:42;96694.34;;;2.60;100.00
56038;BME280;41907;47.848;9.000;2024-02-21T02:06:07;96699.72;;;2.65;100.00
56038;BME280;41907;47.848;9.000;2024-02-21T02:08:33;96694.78;;;2.69;100.00
56038;BME280;41907;47.848;9.000;2024-02-21T02:10:59;96684.16;;;2.64;100.00
56038;BME280;41907;47.848;9.000;2024-02-21T02:13:24;96685.88;;;2.58;100.00
56038;BME280;41907;47.848;9.000;2024-02-21T02:15:50;96693.13;;;2.51;100.00
56038;BME280;41907;47.848;9.000;2024-02-21T02:18:17;96684.50;;;2.55;100.00
56038;BME280;41907;47.848;9.000;2024-02-21T02:20:43;96683.53;;;2.45;100.00
56038;BME280;41907;47.848;9.000;2024-02-21T02:23:20;96682.59;;;2.51;100.00
56038;BME280;41907;47.848;9.000;2024-02-21T02:25:46;96671.72;;;2.47;100.00
56038;BME280;41907;47.848;9.000;2024-02-21T02:28:14;96680.84;;;2.56;100.00
56038;BME280;41907;47.848;9.000;2024-02-21T02:30:40;96670.03;;;2.81;100.00
56038;BME280;41907;47.848;9.000;2024-02-21T02:33:05;96663.84;;;2.76;100.00
56038;BME280;41907;47.848;9.000;2024-02-21T02:35:31;96658.28;;;2.60;100.00
56038;BME280;41907;47.848;9.000;2024-02-21T02:37:57;96662.84;;;2.65;100.00
56038;BME280;41907;47.848;9.000;2024-02-21T02:40:22;96654.34;;;2.75;100.00
56038;BME280;41907;47.848;9.000;2024-02-21T02:42:49;96658.09;;;2.79;100.00
56038;BME280;41907;47.848;9.000;2024-02-21T02:45:18;96649.41;;;2.78;100.00
56038;BME280;41907;47.848;9.000;2024-02-21T02:47:46;96645.78;;;2.96;100.00
56038;BME280;41907;47.848;9.000;2024-02-21T02:50:12;96645.78;;;2.96;100.00
56038;BME280;41907;47.848;9.000;2024-02-21T02:52:37;96642.56;;;2.94;100.00
56038;BME280;41907;47.848;9.000;2024-02-21T02:55:04;96647.53;;;2.90;100.00
56038;BME280;41907;47.848;9.000;2024-02-21T02:57:29;96647.66;;;2.84;100.00
56038;BME280;41907;47.848;9.000;2024-02-21T02:59:54;96647.22;;;2.75;100.00
56038;BME280;41907;47.848;9.000;2024-02-21T03:02:20;96645.81;;;2.84;100.00
56038;BME280;41907;47.848;9.000;2024-02-21T03:04:45;96637.41;;;2.71;100.00
56038;BME280;41907;47.848;9.000;2024-02-21T03:07:11;96632.22;;;2.76;100.00
56038;BME280;41907;47.848;9.000;2024-02-21T03:09:39;96624.44;;;2.81;100.00
56038;BME280;41907;47.848;9.000;2024-02-21T03:12:05;96614.63;;;2.93;100.00
56038;BME280;41907;47.848;9.000;2024-02-21T03:14:31;96609.91;;;2.95;100.00
56038;BME280;41907;47.848;9.000;2024-02-21T03:16:58;96599.38;;;2.95;100.00
56038;BME280;41907;47.848;9.000;2024-02-21T03:19:24;96611.34;;;2.86;100.00
56038;BME280;41907;47.848;9.000;2024-02-21T03:21:49;96605.28;;;3.02;100.00
56038;BME280;41907;47.848;9.000;2024-02-21T03:24:18;96598.75;;;3.05;100.00
56038;BME280;41907;47.848;9.000;2024-02-21T03:26:44;96591.88;;;3.04;100.00
56038;BME280;41907;47.848;9.000;2024-02-21T03:29:10;96591.69;;;2.93;100.00
56038;BME280;41907;47.848;9.000;2024-02-21T03:31:36;96589.63;;;2.95;100.00
56038;BME280;41907;47.848;9.000;2024-02-21T03:34:02;96582.47;;;2.91;100.00
56038;BME280;41907;47.848;9.000;2024-02-21T03:36:27;96575.75;;;3.00;100.00
56038;BME280;41907;47.848;9.000;2024-02-21T03:38:54;96577.59;;;2.99;100.00
56038;BME280;41907;47.848;9.000;2024-02-21T03:41:19;96572.22;;;2.94;100.00
56038;BME280;41907;47.848;9.000;2024-02-21T03:43:45;96565.91;;;2.95;100.00
56038;BME280;41907;47.848;9.000;2024-02-21T03:46:10;96571.53;;;2.99;100.00
56038;BME280;41907;47.848;9.000;2024-02-21T03:48:36;96569.97;;;2.86;100.00
56038;BME280;41907;47.848;9.000;2024-02-21T03:51:01;96565.69;;;2.97;100.00
56038;BME280;41907;47.848;9.000;2024-02-21T03:53:27;96556.81;;;2.86;100.00
56038;BME280;41907;47.848;9.000;2024-02-21T03:55:53;96547.16;;;2.92;100.00
56038;BME280;41907;47.848;9.000;2024-02-21T03:58:19;96547.56;;;3.01;100.00
56038;BME280;41907;47.848;9.000;2024-02-21T04:00:45;96536.69;;;2.97;100.00
56038;BME280;41907;47.848;9.000;2024-02-21T04:03:10;96542.44;;;2.94;100.00
56038;BME280;41907;47.848;9.000;2024-02-21T04:05:35;96543.34;;;2.83;100.00
56038;BME280;41907;47.848;9.000;2024-02-21T04:08:04;96540.06;;;2.92;100.00
56038;BME280;41907;47.848;9.000;2024-02-21T04:10:30;96530.41;;;2.81;100.00
56038;BME280;41907;47.848;9.000;2024-02-21T04:12:55;96530.63;;;2.80;100.00
56038;BME280;41907;47.848;9.000;2024-02-21T04:15:20;96533.50;;;2.78;100.00
56038;BME280;41907;47.848;9.000;2024-02-21T04:17:46;96532.81;;;2.83;100.00
56038;BME280;41907;47.848;9.000;2024-02-21T04:20:15;96532.81;;;2.99;100.00
56038;BME280;41907;47.848;9.000;2024-02-21T04:22:42;96529.84;;;2.96;100.00
56038;BME280;41907;47.848;9.000;2024-02-21T04:25:08;96530.78;;;3.07;100.00
56038;BME280;41907;47.848;9.000;2024-02-21T04:27:33;96539.66;;;3.17;100.00
56038;BME280;41907;47.848;9.000;2024-02-21T04:29:59;96528.72;;;3.09;100.00
56038;BME280;41907;47.848;9.000;2024-02-21T04:32:24;96531.91;;;2.94;100.00
56038;BME280;41907;47.848;9.000;2024-02-21T04:34:52;96533.50;;;3.12;100.00
56038;BME280;41907;47.848;9.000;2024-02-21T04:37:18;96523.84;;;3.17;100.00
56038;BME280;41907;47.848;9.000;2024-02-21T04:39:43;96522.31;;;3.21;100.00
56038;BME280;41907;47.848;9.000;2024-02-21T04:42:09;96529.75;;;3.24;100.00
56038;BME280;41907;47.848;9.000;2024-02-21T04:44:34;96529.19;;;3.22;100.00
56038;BME280;41907;47.848;9.000;2024-02-21T04:46:59;96522.25;;;3.16;100.00
56038;BME280;41907;47.848;9.000;2024-02-21T04:49:25;96527.91;;;3.08;100.00
56038;BME280;41907;47.848;9.000;2024-02-21T04:51:50;96518.66;;;3.06;100.00
56038;BME280;41907;47.848;9.000;2024-02-21T04:54:15;96512.28;;;3.02;100.00
56038;BME280;41907;47.848;9.000;2024-02-21T04:56:41;96505.72;;;2.87;100.00
56038;BME280;41907;47.848;9.000;2024-02-21T04:59:06;96506.28;;;2.89;100.00
56038;BME280;41907;47.848;9.000;2024-02-21T05:01:31;96500.22;;;2.89;100.00
56038;BME280;41907;47.848;9.000;2024-02-21T05:03:57;96500.38;;;2.82;100.00
56038;BME280;41907;47.848;9.000;2024-02-21T05:06:22;96496.44;;;2.85;100.00
56038;BME280;41907;47.848;9.000;2024-02-21T05:08:47;96493.81;;;2.85;100.00
56038;BME280;41907;47.848;9.000;2024-02-21T05:11:14;96484.59;;;2.82;100.00
56038;BME280;41907;47.848;9.000;2024-02-21T05:13:39;96486.88;;;2.79;100.00
56038;BME280;41907;47.848;9.000;2024-02-21T05:16:05;96484.66;;;2.71;100.00
56038;BME280;41907;47.848;9.000;2024-02-21T05:18:31;96493.75;;;2.63;100.00
56038;BME280;41907;47.848;9.000;2024-02-21T05:20:56;96494.94;;;2.72;100.00
56038;BME280;41907;47.848;9.000;2024-02-21T05:23:22;96476.59;;;2.60;100.00
56038;BME280;41907;47.848;9.000;2024-02-21T05:25:47;96482.59;;;2.73;100.00
56038;BME280;41907;47.848;9.000;2024-02-21T05:28:12;96477.63;;;2.59;100.00
56038;BME280;41907;47.848;9.000;2024-02-21T05:30:38;96481.44;;;2.69;100.00
56038;BME280;41907;47.848;9.000;2024-02-21T05:33:06;96470.22;;;2.73;100.00
56038;BME280;41907;47.848;9.000;2024-02-21T05:35:32;96454.88;;;2.53;100.00
56038;BME280;41907;47.848;9.000;2024-02-21T05:37:58;96448.56;;;2.71;100.00
56038;BME280;41907;47.848;9.000;2024-02-21T05:40:24;96442.56;;;2.76;100.00
56038;BME280;41907;47.848;9.000;2024-02-21T05:42:50;96447.75;;;2.87;100.00
56038;BME280;41907;47.848;9.000;2024-02-21T05:45:17;96446.97;;;2.87;100.00
56038;BME280;41907;47.848;9.000;2024-02-21T05:47:42;96448.50;;;2.83;100.00
56038;BME280;41907;47.848;9.000;2024-02-21T05:50:08;96446.00;;;2.76;100.00
56038;BME280;41907;47.848;9.000;2024-02-21T05:52:34;96445.72;;;2.73;100.00
56038;BME280;41907;47.848;9.000;2024-02-21T05:54:59;96448.81;;;2.70;100.00
56038;BME280;41907;47.848;9.000;2024-02-21T05:57:24;96451.06;;;2.61;100.00
56038;BME280;41907;47.848;9.000;2024-02-21T05:59:50;96454.16;;;2.58;100.00
56038;BME280;41907;47.848;9.000;2024-02-21T06:02:15;96459.50;;;2.63;100.00
56038;BME280;41907;47.848;9.000;2024-02-21T06:04:41;96450.31;;;2.66;100.00
56038;BME280;41907;47.848;9.000;2024-02-21T06:07:08;96445.38;;;2.69;100.00
56038;BME280;41907;47.848;9.000;2024-02-21T06:09:33;96444.19;;;2.60;100.00
56038;BME280;41907;47.848;9.000;2024-02-21T06:11:58;96434.06;;;2.52;100.00
56038;BME280;41907;47.848;9.000;2024-02-21T06:14:24;96430.53;;;2.46;100.00
56038;BME280;41907;47.848;9.000;2024-02-21T06:16:49;96427.25;;;2.39;100.00
56038;BME280;41907;47.848;9.000;2024-02-21T06:19:14;96422.41;;;2.48;100.00
56038;BME280;41907;47.848;9.000;2024-02-21T06:21:40;96419.34;;;2.56;100.00
56038;BME280;41907;47.848;9.000;2024-02-21T06:24:05;96414.09;;;2.56;100.00
56038;BME280;41907;47.848;9.000;2024-02-21T06:26:31;96415.91;;;2.55;100.00
56038;BME280;41907;47.848;9.000;2024-02-21T06:28:56;96425.13;;;2.53;100.00
56038;BME280;41907;47.848;9.000;2024-02-21T06:31:22;96423.59;;;2.57;100.00
56038;BME280;41907;47.848;9.000;2024-02-21T06:33:47;96411.94;;;2.36;100.00
56038;BME280;41907;47.848;9.000;2024-02-21T06:36:13;96414.97;;;2.28;100.00
56038;BME280;41907;47.848;9.000;2024-02-21T06:38:38;96414.03;;;2.34;100.00
56038;BME280;41907;47.848;9.000;2024-02-21T06:41:03;96420.38;;;2.55;100.00
56038;BME280;41907;47.848;9.000;2024-02-21T06:43:29;96418.50;;;2.50;100.00
56038;BME280;41907;47.848;9.000;2024-02-21T06:45:54;96411.47;;;2.56;100.00
56038;BME280;41907;47.848;9.000;2024-02-21T06:48:21;96410.50;;;2.62;100.00
56038;BME280;41907;47.848;9.000;2024-02-21T06:50:47;96411.84;;;2.81;100.00
56038;BME280;41907;47.848;9.000;2024-02-21T06:53:12;96420.59;;;3.04;100.00
56038;BME280;41907;47.848;9.000;2024-02-21T06:55:38;96417.94;;;3.20;100.00
56038;BME280;41907;47.848;9.000;2024-02-21T06:58:03;96425.41;;;3.28;100.00
56038;BME280;41907;47.848;9.000;2024-02-21T07:00:29;96420.19;;;3.33;100.00
56038;BME280;41907;47.848;9.000;2024-02-21T07:02:55;96425.03;;;3.42;100.00
56038;BME280;41907;47.848;9.000;2024-02-21T07:05:20;96430.44;;;3.52;100.00
56038;BME280;41907;47.848;9.000;2024-02-21T07:07:45;96427.69;;;3.63;100.00
56038;BME280;41907;47.848;9.000;2024-02-21T07:10:11;96426.97;;;3.68;100.00
56038;BME280;41907;47.848;9.000;2024-02-21T07:12:36;96425.41;;;3.72;100.00
56038;BME280;41907;47.848;9.000;2024-02-21T07:15:07;96426.22;;;3.72;100.00
56038;BME280;41907;47.848;9.000;2024-02-21T07:17:32;96431.13;;;3.86;100.00
56038;BME280;41907;47.848;9.000;2024-02-21T07:19:57;96421.72;;;3.95;100.00
56038;BME280;41907;47.848;9.000;2024-02-21T07:22:24;96427.97;;;3.89;100.00
56038;BME280;41907;47.848;9.000;2024-02-21T07:24:49;96422.91;;;4.09;100.00
56038;BME280;41907;47.848;9.000;2024-02-21T07:27:15;96434.03;;;4.16;100.00
56038;BME280;41907;47.848;9.000;2024-02-21T07:29:41;96431.41;;;4.43;100.00
56038;BME280;41907;47.848;9.000;2024-02-21T07:32:06;96431.38;;;4.70;100.00
56038;BME280;41907;47.848;9.000;2024-02-21T07:34:31;96426.00;;;5.02;100.00
56038;BME280;41907;47.848;9.000;2024-02-21T07:36:57;96429.31;;;5.19;100.00
56038;BME280;41907;47.848;9.000;2024-02-21T07:39:22;96431.31;;;6.11;100.00
56038;BME280;41907;47.848;9.000;2024-02-21T07:41:48;96422.72;;;7.46;98.91
56038;BME280;41907;47.848;9.000;2024-02-21T07:44:14;96419.72;;;8.27;93.84
56038;BME280;41907;47.848;9.000;2024-02-21T07:46:40;96415.72;;;9.74;83.13
56038;BME280;41907;47.848;9.000;2024-02-21T07:49:06;96420.22;;;9.97;78.34
56038;BME280;41907;47.848;9.000;2024-02-21T07:51:31;96403.22;;;10.36;75.64
56038;BME280;41907;47.848;9.000;2024-02-21T07:53:56;96397.38;;;10.34;73.31
56038;BME280;41907;47.848;9.000;2024-02-21T07:56:22;96396.31;;;11.00;70.92
56038;BME280;41907;47.848;9.000;2024-02-21T07:58:47;96390.09;;;11.18;68.05
56038;BME280;41907;47.848;9.000;2024-02-21T08:01:21;96382.22;;;11.40;67.53
56038;BME280;41907;47.848;9.000;2024-02-21T08:03:46;96371.28;;;10.96;67.31
56038;BME280;41907;47.848;9.000;2024-02-21T08:06:13;96361.56;;;10.72;69.61
56038;BME280;41907;47.848;9.000;2024-02-21T08:08:38;96361.84;;;11.31;67.12
56038;BME280;41907;47.848;9.000;2024-02-21T08:11:04;96365.31;;;11.31;66.79
56038;BME280;41907;47.848;9.000;2024-02-21T08:13:29;96355.69;;;11.44;66.28
56038;BME280;41907;47.848;9.000;2024-02-21T08:15:55;96372.09;;;11.10;68.71
56038;BME280;41907;47.848;9.000;2024-02-21T08:18:20;96366.66;;;10.69;69.71
56038;BME280;41907;47.848;9.000;2024-02-21T08:20:45;96376.28;;;10.51;71.41
56038;BME280;41907;47.848;9.000;2024-02-21T08:23:11;96369.03;;;10.19;72.32
56038;BME280;41907;47.848;9.000;2024-02-21T08:25:36;96364.66;;;10.10;73.13
56038;BME280;41907;47.848;9.000;2024-02-21T08:28:02;96374.00;;;10.44;73.57
56038;BME280;41907;47.848;9.000;2024-02-21T08:30:27;96378.97;;;10.84;70.71
56038;BME280;41907;47.848;9.000;2024-02-21T08:32:52;96370.44;;;10.49;72.65
56038;BME280;41907;47.848;9.000;2024-02-21T08:35:19;96367.44;;;10.56;74.17
56038;BME280;41907;47.848;9.000;2024-02-21T08:37:47;96369.56;;;10.72;72.50
56038;BME280;41907;47.848;9.000;2024-02-21T08:40:13;96366.44;;;10.84;71.14
56038;BME280;41907;47.848;9.000;2024-02-21T08:42:43;96363.59;;;11.08;70.43
56038;BME280;41907;47.848;9.000;2024-02-21T08:45:09;96365.09;;;11.28;68.84
56038;BME280;41907;47.848;9.000;2024-02-21T08:47:35;96363.19;;;11.14;70.96
56038;BME280;41907;47.848;9.000;2024-02-21T08:50:03;96356.78;;;11.84;68.55
56038;BME280;41907;47.848;9.000;2024-02-21T08:52:28;96352.91;;;11.90;65.81
56038;BME280;41907;47.848;9.000;2024-02-21T08:54:53;96352.53;;;11.83;66.23
56038;BME280;41907;47.848;9.000;2024-02-21T08:57:19;96347.19;;;11.55;67.58
56038;BME280;41907;47.848;9.000;2024-02-21T08:59:45;96354.34;;;12.10;67.03
56038;BME280;41907;47.848;9.000;2024-02-21T09:02:10;96348.94;;;12.01;65.65
56038;BME280;41907;47.848;9.000;2024-02-21T09:04:36;96346.16;;;12.28;63.40
56038;BME280;41907;47.848;9.000;2024-02-21T09:07:01;96346.28;;;12.23;63.18
56038;BME280;41907;47.848;9.000;2024-02-21T09:09:26;96350.28;;;12.12;62.64
56038;BME280;41907;47.848;9.000;2024-02-21T09:11:53;96347.38;;;12.22;62.39
56038;BME280;41907;47.848;9.000;2024-02-21T09:14:19;96352.00;;;12.30;62.28
56038;BME280;41907;47.848;9.000;2024-02-21T09:16:44;96348.81;;;12.42;61.00
56038;BME280;41907;47.848;9.000;2024-02-21T09:19:09;96340.69;;;12.56;59.48
56038;BME280;41907;47.848;9.000;2024-02-21T09:21:37;96345.63;;;12.62;61.14
56038;BME280;41907;47.848;9.000;2024-02-21T09:24:02;96340.81;;;13.04;58.66
56038;BME280;41907;47.848;9.000;2024-02-21T09:26:28;96340.03;;;13.03;58.93
56038;BME280;41907;47.848;9.000;2024-02-21T09:28:54;96338.91;;;13.27;57.96
56038;BME280;41907;47.848;9.000;2024-02-21T09:31:19;96351.41;;;13.09;57.36
56038;BME280;41907;47.848;9.000;2024-02-21T09:33:44;96340.63;;;13.23;57.67
56038;BME280;41907;47.848;9.000;2024-02-21T09:36:10;96336.50;;;12.41;58.16
56038;BME280;41907;47.848;9.000;2024-02-21T09:38:35;96334.81;;;11.87;60.15
56038;BME280;41907;47.848;9.000;2024-02-21T09:43:29;96333.94;;;12.81;58.57
56038;BME280;41907;47.848;9.000;2024-02-21T09:45:55;96324.91;;;12.99;56.53
56038;BME280;41907;47.848;9.000;2024-02-21T09:51:02;96327.78;;;13.11;57.81
56038;BME280;41907;47.848;9.000;2024-02-21T09:53:28;96317.94;;;14.63;52.06
56038;BME280;41907;47.848;9.000;2024-02-21T09:55:56;96313.53;;;14.33;51.41
56038;BME280;41907;47.848;9.000;2024-02-21T09:58:23;96321.97;;;14.95;51.41
56038;BME280;41907;47.848;9.000;2024-02-21T10:00:49;96319.16;;;14.83;50.09
56038;BME280;41907;47.848;9.000;2024-02-21T10:03:14;96318.44;;;14.13;52.06
56038;BME280;41907;47.848;9.000;2024-02-21T10:05:47;96310.53;;;13.91;51.95
56038;BME280;41907;47.848;9.000;2024-02-21T10:08:14;96299.66;;;14.22;52.24
56038;BME280;41907;47.848;9.000;2024-02-21T10:10:45;96291.63;;;14.05;51.58
56038;BME280;41907;47.848;9.000;2024-02-21T10:13:25;96293.50;;;14.39;52.25
56038;BME280;41907;47.848;9.000;2024-02-21T10:16:05;96291.19;;;15.89;47.54
56038;BME280;41907;47.848;9.000;2024-02-21T10:18:30;96284.56;;;15.87;46.15
56038;BME280;41907;47.848;9.000;2024-02-21T10:21:08;96289.97;;;15.19;49.69
56038;BME280;41907;47.848;9.000;2024-02-21T10:23:48;96292.63;;;15.66;47.59
56038;BME280;41907;47.848;9.000;2024-02-21T10:26:15;96288.63;;;15.72;47.42
56038;BME280;41907;47.848;9.000;2024-02-21T10:28:41;96284.94;;;15.56;48.76
56038;BME280;41907;47.848;9.000;2024-02-21T10:31:11;96287.19;;;15.07;49.00
56038;BME280;41907;47.848;9.000;2024-02-21T10:34:02;96280.75;;;15.29;49.76
56038;BME280;41907;47.848;9.000;2024-02-21T10:36:30;96267.94;;;15.64;47.79
56038;BME280;41907;47.848;9.000;2024-02-21T10:38:56;96270.47;;;15.90;46.36
56038;BME280;41907;47.848;9.000;2024-02-21T10:41:22;96259.50;;;15.74;47.16
56038;BME280;41907;47.848;9.000;2024-02-21T10:43:53;96252.53;;;15.73;48.20
56038;BME280;41907;47.848;9.000;2024-02-21T10:46:20;96247.13;;;15.23;47.86
56038;BME280;41907;47.848;9.000;2024-02-21T10:48:46;96247.94;;;14.77;49.75
56038;BME280;41907;47.848;9.000;2024-02-21T10:51:18;96252.81;;;14.83;50.09
56038;BME280;41907;47.848;9.000;2024-02-21T10:56:35;96240.06;;;15.69;47.86
56038;BME280;41907;47.848;9.000;2024-02-21T10:59:04;96241.06;;;15.35;48.50
56038;BME280;41907;47.848;9.000;2024-02-21T11:01:30;96231.81;;;15.74;48.77
56038;BME280;41907;47.848;9.000;2024-02-21T11:03:58;96243.34;;;16.49;46.76
56038;BME280;41907;47.848;9.000;2024-02-21T11:06:26;96236.03;;;16.70;45.97
56038;BME280;41907;47.848;9.000;2024-02-21T11:11:25;96223.03;;;17.33;44.74
56038;BME280;41907;47.848;9.000;2024-02-21T11:13:50;96217.72;;;17.48;43.99
56038;BME280;41907;47.848;9.000;2024-02-21T11:16:22;96215.81;;;17.49;43.79
56038;BME280;41907;47.848;9.000;2024-02-21T11:18:48;96208.50;;;17.74;43.52
56038;BME280;41907;47.848;9.000;2024-02-21T11:21:14;96208.31;;;17.42;43.48
56038;BME280;41907;47.848;9.000;2024-02-21T11:23:39;96202.69;;;17.35;43.29
56038;BME280;41907;47.848;9.000;2024-02-21T11:26:18;96206.72;;;16.81;44.87
56038;BME280;41907;47.848;9.000;2024-02-21T11:29:04;96200.56;;;16.80;45.17
56038;BME280;41907;47.848;9.000;2024-02-21T11:31:41;96181.13;;;15.34;47.34
56038;BME280;41907;47.848;9.000;2024-02-21T11:34:10;96181.53;;;16.07;47.17
56038;BME280;41907;47.848;9.000;2024-02-21T11:36:36;96168.25;;;16.35;46.58
56038;BME280;41907;47.848;9.000;2024-02-21T11:39:11;96164.09;;;16.25;46.17
56038;BME280;41907;47.848;9.000;2024-02-21T11:41:36;96151.72;;;16.82;45.91
56038;BME280;41907;47.848;9.000;2024-02-21T11:44:01;96148.13;;;17.02;44.03
56038;BME280;41907;47.848;9.000;2024-02-21T11:46:27;96154.34;;;16.33;45.19
56038;BME280;41907;47.848;9.000;2024-02-21T11:48:52;96146.72;;;16.35;46.03
56038;BME280;41907;47.848;9.000;2024-02-21T11:51:22;96144.19;;;16.51;46.33
56038;BME280;41907;47.848;9.000;2024-02-21T11:53:50;96137.88;;;16.47;46.76
56038;BME280;41907;47.848;9.000;2024-02-21T11:56:16;96139.91;;;16.50;45.01
56038;BME280;41907;47.848;9.000;2024-02-21T11:58:41;96119.53;;;16.16;45.18
56038;BME280;41907;47.848;9.000;2024-02-21T12:01:08;96107.91;;;15.58;46.31
56038;BME280;41907;47.848;9.000;2024-02-21T12:03:33;96110.06;;;14.73;48.48
56038;BME280;41907;47.848;9.000;2024-02-21T12:06:01;96103.56;;;14.53;49.58
56038;BME280;41907;47.848;9.000;2024-02-21T12:08:40;96101.59;;;14.15;51.02
56038;BME280;41907;47.848;9.000;2024-02-21T12:11:23;96092.00;;;14.82;50.38
56038;BME280;41907;47.848;9.000;2024-02-21T12:14:02;96089.16;;;14.58;49.83
56038;BME280;41907;47.848;9.000;2024-02-21T12:16:29;96086.69;;;14.44;50.74
56038;BME280;41907;47.848;9.000;2024-02-21T12:18:55;96078.22;;;14.71;51.24
56038;BME280;41907;47.848;9.000;2024-02-21T12:21:25;96069.69;;;14.69;49.71
56038;BME280;41907;47.848;9.000;2024-02-21T12:23:53;96065.84;;;14.49;50.79
56038;BME280;41907;47.848;9.000;2024-02-21T12:26:18;96059.19;;;14.09;51.35
56038;BME280;41907;47.848;9.000;2024-02-21T12:28:43;96061.84;;;13.71;53.76
56038;BME280;41907;47.848;9.000;2024-02-21T12:31:09;96055.94;;;13.95;52.32
56038;BME280;41907;47.848;9.000;2024-02-21T12:33:34;96051.91;;;13.63;53.00
56038;BME280;41907;47.848;9.000;2024-02-21T12:36:00;96050.69;;;13.52;53.83
56038;BME280;41907;47.848;9.000;2024-02-21T12:38:25;96036.66;;;13.46;53.10
56038;BME280;41907;47.848;9.000;2024-02-21T12:40:51;96030.56;;;13.20;54.25
56038;BME280;41907;47.848;9.000;2024-02-21T12:43:16;96026.28;;;13.10;55.33
56038;BME280;41907;47.848;9.000;2024-02-21T12:45:43;96019.63;;;13.51;54.93
56038;BME280;41907;47.848;9.000;2024-02-21T12:48:08;96017.94;;;13.29;54.55
56038;BME280;41907;47.848;9.000;2024-02-21T12:50:34;96009.88;;;13.12;55.78
56038;BME280;41907;47.848;9.000;2024-02-21T12:52:59;96007.38;;;13.07;55.59
56038;BME280;41907;47.848;9.000;2024-02-21T12:55:25;95998.88;;;12.79;55.67
56038;BME280;41907;47.848;9.000;2024-02-21T12:57:50;95995.94;;;12.06;57.49
56038;BME280;41907;47.848;9.000;2024-02-21T13:00:16;95993.13;;;12.20;58.73
56038;BME280;41907;47.848;9.000;2024-02-21T13:02:42;95989.97;;;12.18;59.15
56038;BME280;41907;47.848;9.000;2024-02-21T13:05:08;95983.19;;;12.12;58.92
56038;BME280;41907;47.848;9.000;2024-02-21T13:07:33;95977.22;;;12.06;58.04